createdAt,value
2019-03-05T00:00:47.120Z,-73
2019-03-05T00:01:47.113Z,-72
2019-03-05T00:02:47.112Z,-73
2019-03-05T00:03:47.138Z,-73
2019-03-05T00:04:47.115Z,-73
2019-03-05T00:05:47.117Z,-73
2019-03-05T00:06:47.117Z,-72
2019-03-05T00:07:47.123Z,-73
2019-03-05T00:08:47.141Z,-72
2019-03-05T00:09:47.118Z,-72
2019-03-05T00:10:47.121Z,-72
2019-03-05T00:11:47.121Z,-73
2019-03-05T00:12:47.126Z,-72
2019-03-05T00:13:47.158Z,-73
2019-03-05T00:14:47.123Z,-73
2019-03-05T00:15:47.125Z,-72
2019-03-05T00:16:47.125Z,-72
2019-03-05T00:17:47.125Z,-72
2019-03-05T00:18:47.125Z,-72
2019-03-05T00:19:47.128Z,-71
2019-03-05T00:20:47.129Z,-71
2019-03-05T00:21:47.129Z,-71
2019-03-05T00:22:47.131Z,-71
2019-03-05T00:23:47.169Z,-71
2019-03-05T00:24:47.156Z,-71
2019-03-05T00:25:47.133Z,-72
2019-03-05T00:26:47.139Z,-73
2019-03-05T00:27:47.134Z,-73
2019-03-05T00:28:47.136Z,-73
2019-03-05T00:29:47.135Z,-72
2019-03-05T00:30:47.137Z,-73
2019-03-05T00:31:47.138Z,-73
2019-03-05T00:32:47.143Z,-72
2019-03-05T00:33:47.141Z,-72
2019-03-05T00:34:47.166Z,-72
2019-03-05T00:35:47.143Z,-72
2019-03-05T00:36:47.140Z,-72
2019-03-05T00:37:47.144Z,-72
2019-03-05T00:38:47.144Z,-72
2019-03-05T00:39:47.143Z,-71
2019-03-05T00:40:47.147Z,-70
2019-03-05T00:41:47.153Z,-73
2019-03-05T00:42:47.149Z,-72
2019-03-05T00:43:47.147Z,-73
2019-03-05T00:44:47.173Z,-72
2019-03-05T00:45:47.150Z,-72
2019-03-05T00:46:47.152Z,-72
2019-03-05T00:47:47.153Z,-72
2019-03-05T00:48:47.151Z,-72
2019-03-05T00:49:47.153Z,-72
2019-03-05T00:50:47.153Z,-72
2019-03-05T00:51:47.156Z,-73
2019-03-05T00:52:47.155Z,-72
2019-03-05T00:53:47.157Z,-72
2019-03-05T00:54:47.181Z,-72
2019-03-05T00:55:49.609Z,-74
2019-03-05T00:56:47.161Z,-72
2019-03-05T00:57:47.158Z,-73
2019-03-05T00:58:47.162Z,-73
2019-03-05T00:59:47.161Z,-73
2019-03-05T01:00:47.163Z,-73
2019-03-05T01:01:47.166Z,-73
2019-03-05T01:02:47.164Z,-74
2019-03-05T01:03:47.164Z,-73
2019-03-05T01:04:47.190Z,-74
2019-03-05T01:05:47.168Z,-73
2019-03-05T01:06:47.167Z,-75
2019-03-05T01:07:47.170Z,-74
2019-03-05T01:08:47.169Z,-73
2019-03-05T01:09:47.217Z,-73
2019-03-05T01:10:47.170Z,-74
2019-03-05T01:11:47.172Z,-71
2019-03-05T01:12:47.174Z,-71
2019-03-05T01:13:47.174Z,-71
2019-03-05T01:14:47.173Z,-72
2019-03-05T01:15:47.174Z,-72
2019-03-05T01:16:47.174Z,-72
2019-03-05T01:17:47.175Z,-72
2019-03-05T01:18:47.177Z,-71
2019-03-05T01:19:47.178Z,-71
2019-03-05T01:20:47.205Z,-72
2019-03-05T01:21:47.179Z,-71
2019-03-05T01:22:47.183Z,-72
2019-03-05T01:23:47.181Z,-72
2019-03-05T01:24:47.182Z,-72
2019-03-05T01:25:47.182Z,-72
2019-03-05T01:26:47.184Z,-72
2019-03-05T01:27:47.184Z,-72
2019-03-05T01:28:47.189Z,-72
2019-03-05T01:29:47.185Z,-71
2019-03-05T01:30:47.211Z,-72
2019-03-05T01:31:47.268Z,-72
2019-03-05T01:32:47.193Z,-71
2019-03-05T01:33:47.189Z,-72
2019-03-05T01:34:47.189Z,-72
2019-03-05T01:35:47.194Z,-72
2019-03-05T01:36:47.192Z,-72
2019-03-05T01:37:47.194Z,-72
2019-03-05T01:38:47.193Z,-73
2019-03-05T01:39:47.194Z,-72
2019-03-05T01:40:47.218Z,-72
2019-03-05T01:41:47.196Z,-72
2019-03-05T01:42:47.197Z,-72
2019-03-05T01:43:47.197Z,-72
2019-03-05T01:44:47.199Z,-73
2019-03-05T01:45:47.246Z,-73
2019-03-05T01:46:47.203Z,-72
2019-03-05T01:47:47.200Z,-73
2019-03-05T01:48:47.203Z,-73
2019-03-05T01:49:47.205Z,-73
2019-03-05T01:50:47.205Z,-72
2019-03-05T01:51:47.206Z,-72
2019-03-05T01:52:47.205Z,-72
2019-03-05T01:53:47.203Z,-73
2019-03-05T01:54:47.207Z,-73
2019-03-05T01:55:47.213Z,-72
2019-03-05T01:56:47.232Z,-72
2019-03-05T01:57:47.210Z,-72
2019-03-05T01:58:47.212Z,-72
2019-03-05T01:59:47.212Z,-72
2019-03-05T02:00:47.210Z,-72
2019-03-05T02:01:47.215Z,-72
2019-03-05T02:02:47.285Z,-72
2019-03-05T02:03:47.214Z,-73
2019-03-05T02:04:47.215Z,-72
2019-03-05T02:05:47.217Z,-71
2019-03-05T02:06:47.246Z,-72
2019-03-05T02:07:47.218Z,-72
2019-03-05T02:08:47.219Z,-72
2019-03-05T02:09:47.217Z,-72
2019-03-05T02:10:47.219Z,-72
2019-03-05T02:11:47.220Z,-72
2019-03-05T02:12:47.222Z,-73
2019-03-05T02:13:47.222Z,-73
2019-03-05T02:14:47.223Z,-72
2019-03-05T02:15:47.223Z,-72
2019-03-05T02:16:47.248Z,-72
2019-03-05T02:17:47.225Z,-72
2019-03-05T02:18:47.228Z,-72
2019-03-05T02:19:47.229Z,-73
2019-03-05T02:20:47.229Z,-73
2019-03-05T02:21:47.229Z,-73
2019-03-05T02:22:47.230Z,-72
2019-03-05T02:23:47.236Z,-72
2019-03-05T02:24:47.232Z,-72
2019-03-05T02:25:47.232Z,-72
2019-03-05T02:26:47.255Z,-72
2019-03-05T02:27:47.235Z,-72
2019-03-05T02:28:47.235Z,-71
2019-03-05T02:29:47.234Z,-72
2019-03-05T02:30:47.346Z,-72
2019-03-05T02:31:47.238Z,-72
2019-03-05T02:32:47.238Z,-73
2019-03-05T02:33:47.241Z,-72
2019-03-05T02:34:47.240Z,-71
2019-03-05T02:35:47.243Z,-71
2019-03-05T02:36:47.266Z,-71
2019-03-05T02:37:47.242Z,-71
2019-03-05T02:38:47.458Z,-72
2019-03-05T02:39:47.244Z,-72
2019-03-05T02:40:47.245Z,-73
2019-03-05T02:41:47.282Z,-72
2019-03-05T02:42:47.248Z,-72
2019-03-05T02:43:47.248Z,-73
2019-03-05T02:44:47.253Z,-73
2019-03-05T02:45:47.251Z,-73
2019-03-05T02:46:47.248Z,-73
2019-03-05T02:47:47.251Z,-73
2019-03-05T02:48:47.251Z,-72
2019-03-05T02:49:47.253Z,-72
2019-03-05T02:50:47.255Z,-74
2019-03-05T02:51:47.257Z,-74
2019-03-05T02:52:47.284Z,-74
2019-03-05T02:53:47.256Z,-74
2019-03-05T02:54:47.257Z,-74
2019-03-05T02:55:47.391Z,-74
2019-03-05T02:56:47.270Z,-74
2019-03-05T02:57:47.388Z,-74
2019-03-05T02:58:47.265Z,-73
2019-03-05T02:59:47.260Z,-74
2019-03-05T03:00:47.261Z,-74
2019-03-05T03:01:47.263Z,-74
2019-03-05T03:02:47.290Z,-73
2019-03-05T03:03:47.276Z,-73
2019-03-05T03:04:47.263Z,-74
2019-03-05T03:05:47.268Z,-72
2019-03-05T03:06:47.271Z,-72
2019-03-05T03:07:47.266Z,-72
2019-03-05T03:08:47.268Z,-72
2019-03-05T03:09:47.271Z,-72
2019-03-05T03:10:47.271Z,-72
2019-03-05T03:11:47.275Z,-72
2019-03-05T03:12:47.308Z,-72
2019-03-05T03:13:47.273Z,-72
2019-03-05T03:14:47.274Z,-72
2019-03-05T03:15:47.273Z,-72
2019-03-05T03:16:47.275Z,-72
2019-03-05T03:17:47.277Z,-74
2019-03-05T03:18:47.285Z,-73
2019-03-05T03:19:47.333Z,-73
2019-03-05T03:20:47.280Z,-73
2019-03-05T03:21:47.290Z,-74
2019-03-05T03:22:47.309Z,-73
2019-03-05T03:23:47.291Z,-73
2019-03-05T03:24:47.289Z,-73
2019-03-05T03:25:47.281Z,-73
2019-03-05T03:26:47.284Z,-73
2019-03-05T03:27:47.309Z,-73
2019-03-05T03:28:47.285Z,-74
2019-03-05T03:29:47.284Z,-74
2019-03-05T03:30:47.290Z,-74
2019-03-05T03:31:47.605Z,-74
2019-03-05T03:32:47.312Z,-74
2019-03-05T03:33:47.289Z,-74
2019-03-05T03:34:47.289Z,-75
2019-03-05T03:35:47.298Z,-74
2019-03-05T03:36:47.291Z,-74
2019-03-05T03:37:47.314Z,-73
2019-03-05T03:38:47.299Z,-74
2019-03-05T03:39:47.294Z,-73
2019-03-05T03:40:47.301Z,-73
2019-03-05T03:41:47.294Z,-73
2019-03-05T03:42:47.343Z,-73
2019-03-05T03:43:47.295Z,-73
2019-03-05T03:44:47.299Z,-73
2019-03-05T03:45:47.298Z,-73
2019-03-05T03:46:47.301Z,-73
2019-03-05T03:47:47.324Z,-73
2019-03-05T03:48:47.301Z,-73
2019-03-05T03:49:47.307Z,-73
2019-03-05T03:50:47.306Z,-73
2019-03-05T03:51:47.306Z,-73
2019-03-05T03:52:47.345Z,-73
2019-03-05T03:53:47.311Z,-73
2019-03-05T03:54:47.307Z,-73
2019-03-05T03:55:47.416Z,-73
2019-03-05T03:56:47.309Z,-72
2019-03-05T03:57:47.310Z,-72
2019-03-05T03:58:47.333Z,-72
2019-03-05T03:59:47.308Z,-73
2019-03-05T04:00:47.314Z,-72
2019-03-05T04:01:47.315Z,-72
2019-03-05T04:02:47.314Z,-72
2019-03-05T04:03:47.313Z,-72
2019-03-05T04:04:47.315Z,-72
2019-03-05T04:05:47.320Z,-72
2019-03-05T04:06:47.314Z,-72
2019-03-05T04:07:47.318Z,-72
2019-03-05T04:08:47.342Z,-72
2019-03-05T04:09:47.319Z,-72
2019-03-05T04:10:47.319Z,-72
2019-03-05T04:11:47.319Z,-72
2019-03-05T04:12:47.324Z,-71
2019-03-05T04:13:47.322Z,-73
2019-03-05T04:14:47.325Z,-73
2019-03-05T04:15:47.324Z,-73
2019-03-05T04:16:47.325Z,-73
2019-03-05T04:17:47.332Z,-73
2019-03-05T04:18:47.351Z,-73
2019-03-05T04:19:47.328Z,-74
2019-03-05T04:20:47.332Z,-74
2019-03-05T04:21:47.332Z,-74
2019-03-05T04:22:47.330Z,-75
2019-03-05T04:23:47.330Z,-74
2019-03-05T04:24:47.330Z,-74
2019-03-05T04:25:47.331Z,-74
2019-03-05T04:26:47.331Z,-76
2019-03-05T04:27:47.333Z,-74
2019-03-05T04:28:47.355Z,-74
2019-03-05T04:29:47.334Z,-74
2019-03-05T04:30:47.336Z,-74
2019-03-05T04:31:47.338Z,-75
2019-03-05T04:32:47.343Z,-74
2019-03-05T04:33:47.339Z,-74
2019-03-05T04:34:47.340Z,-74
2019-03-05T04:35:47.341Z,-74
2019-03-05T04:36:47.339Z,-74
2019-03-05T04:37:47.342Z,-74
2019-03-05T04:38:47.367Z,-74
2019-03-05T04:39:47.344Z,-74
2019-03-05T04:40:47.343Z,-74
2019-03-05T04:41:47.345Z,-74
2019-03-05T04:42:47.344Z,-78
2019-03-05T04:43:47.345Z,-74
2019-03-05T04:44:47.346Z,-74
2019-03-05T04:45:47.348Z,-74
2019-03-05T04:46:47.350Z,-74
2019-03-05T04:47:47.354Z,-75
2019-03-05T04:48:47.375Z,-74
2019-03-05T04:49:47.351Z,-75
2019-03-05T04:50:47.352Z,-75
2019-03-05T04:51:47.354Z,-75
2019-03-05T04:52:47.355Z,-77
2019-03-05T04:53:47.355Z,-75
2019-03-05T04:54:47.356Z,-75
2019-03-05T04:55:47.357Z,-75
2019-03-05T04:56:47.357Z,-75
2019-03-05T04:57:47.359Z,-75
2019-03-05T04:58:47.382Z,-75
2019-03-05T04:59:47.359Z,-75
2019-03-05T05:00:47.360Z,-75
2019-03-05T05:01:47.361Z,-75
2019-03-05T05:02:47.363Z,-79
2019-03-05T05:03:47.362Z,-75
2019-03-05T05:04:47.366Z,-74
2019-03-05T05:05:47.366Z,-75
2019-03-05T05:06:47.363Z,-74
2019-03-05T05:07:47.366Z,-73
2019-03-05T05:08:47.389Z,-73
2019-03-05T05:09:47.367Z,-73
2019-03-05T05:10:47.369Z,-73
2019-03-05T05:11:47.370Z,-73
2019-03-05T05:12:47.370Z,-77
2019-03-05T05:13:47.396Z,-73
2019-03-05T05:14:47.370Z,-73
2019-03-05T05:15:47.373Z,-72
2019-03-05T05:16:47.373Z,-73
2019-03-05T05:17:47.374Z,-73
2019-03-05T05:18:47.399Z,-73
2019-03-05T05:19:47.375Z,-73
2019-03-05T05:20:47.378Z,-73
2019-03-05T05:21:47.379Z,-72
2019-03-05T05:22:47.377Z,-76
2019-03-05T05:23:47.403Z,-72
2019-03-05T05:24:47.379Z,-73
2019-03-05T05:25:47.382Z,-73
2019-03-05T05:26:47.383Z,-72
2019-03-05T05:27:47.380Z,-72
2019-03-05T05:28:47.408Z,-72
2019-03-05T05:29:47.385Z,-73
2019-03-05T05:30:47.388Z,-72
2019-03-05T05:31:47.385Z,-72
2019-03-05T05:32:47.389Z,-76
2019-03-05T05:33:47.418Z,-71
2019-03-05T05:34:47.390Z,-70
2019-03-05T05:35:47.392Z,-71
2019-03-05T05:36:47.390Z,-71
2019-03-05T05:37:47.395Z,-70
2019-03-05T05:38:47.432Z,-70
2019-03-05T05:39:47.392Z,-71
2019-03-05T05:40:47.393Z,-70
2019-03-05T05:41:47.394Z,-71
2019-03-05T05:42:47.396Z,-73
2019-03-05T05:43:47.395Z,-70
2019-03-05T05:44:47.423Z,-71
2019-03-05T05:45:47.400Z,-71
2019-03-05T05:46:47.399Z,-70
2019-03-05T05:47:47.400Z,-71
2019-03-05T05:48:47.402Z,-71
2019-03-05T05:49:47.400Z,-70
2019-03-05T05:50:47.405Z,-71
2019-03-05T05:51:47.402Z,-70
2019-03-05T05:52:47.404Z,-74
2019-03-05T05:53:47.404Z,-73
2019-03-05T05:54:47.429Z,-71
2019-03-05T05:55:47.405Z,-71
2019-03-05T05:56:47.407Z,-71
2019-03-05T05:57:47.408Z,-71
2019-03-05T05:58:47.412Z,-71
2019-03-05T05:59:47.409Z,-70
2019-03-05T06:00:47.413Z,-71
2019-03-05T06:01:47.411Z,-70
2019-03-05T06:02:47.411Z,-75
2019-03-05T06:03:47.413Z,-70
2019-03-05T06:04:47.440Z,-71
2019-03-05T06:05:47.413Z,-70
2019-03-05T06:06:47.414Z,-72
2019-03-05T06:07:47.418Z,-71
2019-03-05T06:08:47.417Z,-70
2019-03-05T06:09:47.418Z,-70
2019-03-05T06:10:47.417Z,-71
2019-03-05T06:11:47.419Z,-71
2019-03-05T06:12:47.420Z,-74
2019-03-05T06:13:47.420Z,-70
2019-03-05T06:14:47.445Z,-71
2019-03-05T06:15:47.421Z,-71
2019-03-05T06:16:47.435Z,-70
2019-03-05T06:17:47.422Z,-71
2019-03-05T06:18:48.511Z,-70
2019-03-05T06:19:47.424Z,-71
2019-03-05T06:20:47.426Z,-71
2019-03-05T06:21:47.440Z,-70
2019-03-05T06:22:47.426Z,-74
2019-03-05T06:23:47.429Z,-71
2019-03-05T06:24:47.451Z,-71
2019-03-05T06:25:47.432Z,-71
2019-03-05T06:26:47.432Z,-70
2019-03-05T06:27:47.437Z,-71
2019-03-05T06:28:47.435Z,-71
2019-03-05T06:29:47.436Z,-71
2019-03-05T06:30:47.433Z,-72
2019-03-05T06:31:47.434Z,-71
2019-03-05T06:32:47.438Z,-74
2019-03-05T06:33:47.438Z,-71
2019-03-05T06:34:47.462Z,-72
2019-03-05T06:35:47.438Z,-71
2019-03-05T06:36:47.438Z,-72
2019-03-05T06:37:47.441Z,-71
2019-03-05T06:38:47.439Z,-71
2019-03-05T06:39:47.441Z,-71
2019-03-05T06:40:47.444Z,-71
2019-03-05T06:41:47.443Z,-71
2019-03-05T06:42:47.444Z,-74
2019-03-05T06:43:47.445Z,-70
2019-03-05T06:44:47.470Z,-71
2019-03-05T06:45:47.446Z,-72
2019-03-05T06:46:47.446Z,-70
2019-03-05T06:47:47.451Z,-70
2019-03-05T06:48:47.451Z,-70
2019-03-05T06:49:47.471Z,-71
2019-03-05T06:50:47.450Z,-71
2019-03-05T06:51:47.461Z,-70
2019-03-05T06:52:47.453Z,-74
2019-03-05T06:53:47.455Z,-70
2019-03-05T06:54:47.477Z,-70
2019-03-05T06:55:47.538Z,-70
2019-03-05T06:56:47.455Z,-71
2019-03-05T06:57:47.457Z,-70
2019-03-05T06:58:47.458Z,-70
2019-03-05T06:59:47.481Z,-70
2019-03-05T07:00:47.461Z,-70
2019-03-05T07:01:47.460Z,-71
2019-03-05T07:02:47.468Z,-74
2019-03-05T07:03:47.463Z,-71
2019-03-05T07:04:47.566Z,-70
2019-03-05T07:05:47.463Z,-70
2019-03-05T07:06:47.464Z,-70
2019-03-05T07:07:47.466Z,-70
2019-03-05T07:08:47.465Z,-71
2019-03-05T07:09:47.469Z,-71
2019-03-05T07:10:47.490Z,-71
2019-03-05T07:11:47.468Z,-71
2019-03-05T07:12:47.471Z,-74
2019-03-05T07:13:47.469Z,-71
2019-03-05T07:14:47.472Z,-72
2019-03-05T07:15:47.470Z,-71
2019-03-05T07:16:47.471Z,-70
2019-03-05T07:17:47.473Z,-70
2019-03-05T07:18:47.474Z,-70
2019-03-05T07:19:57.487Z,-70
2019-03-05T07:20:47.500Z,-70
2019-03-05T07:21:47.478Z,-70
2019-03-05T07:22:47.477Z,-74
2019-03-05T07:23:47.486Z,-71
2019-03-05T07:24:47.482Z,-70
2019-03-05T07:25:47.480Z,-70
2019-03-05T07:26:47.478Z,-70
2019-03-05T07:27:47.481Z,-70
2019-03-05T07:28:47.481Z,-70
2019-03-05T07:29:47.486Z,-71
2019-03-05T07:30:47.518Z,-71
2019-03-05T07:31:47.483Z,-70
2019-03-05T07:32:47.485Z,-74
2019-03-05T07:33:47.489Z,-71
2019-03-05T07:34:47.491Z,-70
2019-03-05T07:35:47.488Z,-70
2019-03-05T07:36:47.512Z,-70
2019-03-05T07:37:47.488Z,-71
2019-03-05T07:38:47.489Z,-71
2019-03-05T07:39:47.492Z,-70
2019-03-05T07:40:47.492Z,-71
2019-03-05T07:41:48.257Z,-70
2019-03-05T07:42:47.494Z,-74
2019-03-05T07:43:47.494Z,-70
2019-03-05T07:44:47.497Z,-70
2019-03-05T07:45:47.493Z,-70
2019-03-05T07:46:47.519Z,-70
2019-03-05T07:47:47.497Z,-71
2019-03-05T07:48:47.498Z,-70
2019-03-05T07:49:47.500Z,-70
2019-03-05T07:50:47.500Z,-70
2019-03-05T07:51:47.499Z,-70
2019-03-05T07:52:47.502Z,-73
2019-03-05T07:53:47.504Z,-70
2019-03-05T07:54:47.506Z,-70
2019-03-05T07:55:47.503Z,-70
2019-03-05T07:56:47.527Z,-70
2019-03-05T07:57:47.507Z,-70
2019-03-05T07:58:47.507Z,-70
2019-03-05T07:59:47.507Z,-70
2019-03-05T08:00:47.508Z,-70
2019-03-05T08:01:47.510Z,-70
2019-03-05T08:02:47.512Z,-74
2019-03-05T08:03:47.510Z,-70
2019-03-05T08:04:47.510Z,-70
2019-03-05T08:05:47.745Z,-70
2019-03-05T08:06:47.537Z,-70
2019-03-05T08:07:47.515Z,-70
2019-03-05T08:08:47.514Z,-70
2019-03-05T08:09:47.515Z,-71
2019-03-05T08:10:47.521Z,-70
2019-03-05T08:11:47.553Z,-71
2019-03-05T08:12:47.519Z,-73
2019-03-05T08:13:47.519Z,-70
2019-03-05T08:14:47.522Z,-71
2019-03-05T08:15:47.520Z,-70
2019-03-05T08:16:47.525Z,-73
2019-03-05T08:17:47.522Z,-70
2019-03-05T08:18:47.525Z,-70
2019-03-05T08:19:47.525Z,-70
2019-03-05T08:20:47.525Z,-70
2019-03-05T08:21:47.527Z,-71
2019-03-05T08:22:47.551Z,-74
2019-03-05T08:23:48.505Z,-70
2019-03-05T08:24:47.531Z,-71
2019-03-05T08:25:47.531Z,-70
2019-03-05T08:26:47.530Z,-70
2019-03-05T08:27:47.529Z,-70
2019-03-05T08:28:47.533Z,-71
2019-03-05T08:29:47.532Z,-71
2019-03-05T08:30:47.534Z,-71
2019-03-05T08:31:47.533Z,-71
2019-03-05T08:32:47.557Z,-74
2019-03-05T08:33:47.535Z,-71
2019-03-05T08:34:47.535Z,-72
2019-03-05T08:35:47.537Z,-72
2019-03-05T08:36:47.586Z,-72
2019-03-05T08:37:47.546Z,-71
2019-03-05T08:38:47.539Z,-70
2019-03-05T08:39:47.606Z,-71
2019-03-05T08:40:47.541Z,-71
2019-03-05T08:41:47.654Z,-71
2019-03-05T08:42:47.576Z,-73
2019-03-05T08:43:47.544Z,-70
2019-03-05T08:44:50.586Z,-70
2019-03-05T08:45:47.544Z,-71
2019-03-05T08:46:47.547Z,-70
2019-03-05T08:47:47.571Z,-71
2019-03-05T08:48:47.549Z,-70
2019-03-05T08:49:47.548Z,-71
2019-03-05T08:50:47.551Z,-71
2019-03-05T08:51:47.551Z,-71
2019-03-05T08:52:47.586Z,-74
2019-03-05T08:53:49.628Z,-70
2019-03-05T08:54:47.555Z,-70
2019-03-05T08:55:47.554Z,-71
2019-03-05T08:56:47.555Z,-71
2019-03-05T08:57:47.556Z,-71
2019-03-05T08:58:47.583Z,-71
2019-03-05T08:59:47.556Z,-71
2019-03-05T09:00:48.217Z,-71
2019-03-05T09:01:47.584Z,-70
2019-03-05T09:02:48.778Z,-74
2019-03-05T09:03:47.562Z,-70
2019-03-05T09:04:47.562Z,-71
2019-03-05T09:05:47.561Z,-71
2019-03-05T09:06:47.564Z,-70
2019-03-05T09:07:47.564Z,-70
2019-03-05T09:08:47.591Z,-70
2019-03-05T09:09:47.564Z,-70
2019-03-05T09:10:47.567Z,-71
2019-03-05T09:11:47.566Z,-71
2019-03-05T09:12:47.569Z,-74
2019-03-05T09:13:47.569Z,-71
2019-03-05T09:14:47.572Z,-71
2019-03-05T09:15:47.571Z,-71
2019-03-05T09:16:47.574Z,-70
2019-03-05T09:17:47.573Z,-71
2019-03-05T09:18:47.597Z,-71
2019-03-05T09:19:47.575Z,-70
2019-03-05T09:20:47.575Z,-71
2019-03-05T09:21:49.202Z,-71
2019-03-05T09:22:47.576Z,-73
2019-03-05T09:23:47.576Z,-70
2019-03-05T09:24:47.578Z,-71
2019-03-05T09:25:47.577Z,-70
2019-03-05T09:26:50.991Z,-71
2019-03-05T09:27:47.581Z,-71
2019-03-05T09:28:47.605Z,-71
2019-03-05T09:29:47.583Z,-71
2019-03-05T09:30:47.582Z,-70
2019-03-05T09:31:47.588Z,-71
2019-03-05T09:32:47.585Z,-73
2019-03-05T09:33:47.585Z,-71
2019-03-05T09:34:47.587Z,-71
2019-03-05T09:35:47.588Z,-71
2019-03-05T09:36:51.116Z,-71
2019-03-05T09:37:47.590Z,-71
2019-03-05T09:38:47.612Z,-71
2019-03-05T09:39:47.591Z,-71
2019-03-05T09:40:47.590Z,-71
2019-03-05T09:41:47.595Z,-70
2019-03-05T09:42:47.592Z,-73
2019-03-05T09:43:47.593Z,-71
2019-03-05T09:44:47.594Z,-70
2019-03-05T09:45:47.592Z,-71
2019-03-05T09:46:47.599Z,-71
2019-03-05T09:47:47.595Z,-71
2019-03-05T09:48:47.621Z,-71
2019-03-05T09:49:47.599Z,-71
2019-03-05T09:50:47.599Z,-71
2019-03-05T09:51:47.601Z,-71
2019-03-05T09:52:54.648Z,-73
2019-03-05T09:53:47.624Z,-71
2019-03-05T09:54:47.603Z,-71
2019-03-05T09:55:47.606Z,-71
2019-03-05T09:56:47.604Z,-72
2019-03-05T09:57:47.606Z,-71
2019-03-05T09:58:47.627Z,-70
2019-03-05T09:59:47.609Z,-71
2019-03-05T10:00:47.608Z,-70
2019-03-05T10:01:47.611Z,-71
2019-03-05T10:02:47.608Z,-72
2019-03-05T10:03:47.630Z,-71
2019-03-05T10:04:47.611Z,-74
2019-03-05T10:05:47.614Z,-71
2019-03-05T10:06:47.618Z,-70
2019-03-05T10:07:47.611Z,-71
2019-03-05T10:08:47.655Z,-71
2019-03-05T10:09:47.615Z,-70
2019-03-05T10:10:47.617Z,-71
2019-03-05T10:11:47.616Z,-70
2019-03-05T10:12:47.617Z,-73
2019-03-05T10:13:47.619Z,-70
2019-03-05T10:14:47.643Z,-70
2019-03-05T10:15:47.620Z,-70
2019-03-05T10:16:47.622Z,-72
2019-03-05T10:17:49.844Z,-70
2019-03-05T10:18:47.622Z,-70
2019-03-05T10:19:47.816Z,-70
2019-03-05T10:20:47.622Z,-71
2019-03-05T10:21:47.624Z,-70
2019-03-05T10:22:47.629Z,-73
2019-03-05T10:23:47.628Z,-71
2019-03-05T10:24:47.651Z,-71
2019-03-05T10:25:47.628Z,-71
2019-03-05T10:26:47.630Z,-70
2019-03-05T10:27:47.629Z,-70
2019-03-05T10:28:47.630Z,-71
2019-03-05T10:29:47.631Z,-71
2019-03-05T10:30:47.632Z,-71
2019-03-05T10:31:47.636Z,-71
2019-03-05T10:32:47.633Z,-73
2019-03-05T10:33:47.645Z,-70
2019-03-05T10:34:47.661Z,-70
2019-03-05T10:35:47.636Z,-71
2019-03-05T10:36:47.638Z,-71
2019-03-05T10:37:47.638Z,-71
2019-03-05T10:38:56.792Z,-71
2019-03-05T10:39:47.640Z,-71
2019-03-05T10:40:47.642Z,-70
2019-03-05T10:41:47.644Z,-71
2019-03-05T10:42:47.642Z,-72
2019-03-05T10:43:47.643Z,-72
2019-03-05T10:44:47.666Z,-71
2019-03-05T10:45:47.645Z,-71
2019-03-05T10:46:47.647Z,-71
2019-03-05T10:47:47.647Z,-70
2019-03-05T10:48:47.647Z,-70
2019-03-05T10:49:47.647Z,-71
2019-03-05T10:50:47.702Z,-70
2019-03-05T10:51:47.652Z,-70
2019-03-05T10:52:47.651Z,-74
2019-03-05T10:53:47.651Z,-71
2019-03-05T10:54:47.674Z,-70
2019-03-05T10:55:47.654Z,-71
2019-03-05T10:56:47.653Z,-71
2019-03-05T10:57:47.658Z,-70
2019-03-05T10:58:47.654Z,-71
2019-03-05T10:59:47.657Z,-71
2019-03-05T11:00:47.681Z,-71
2019-03-05T11:01:47.657Z,-71
2019-03-05T11:02:47.663Z,-72
2019-03-05T11:03:47.658Z,-71
2019-03-05T11:04:47.660Z,-71
2019-03-05T11:05:47.665Z,-71
2019-03-05T11:06:47.664Z,-71
2019-03-05T11:07:47.701Z,-71
2019-03-05T11:08:47.664Z,-70
2019-03-05T11:09:47.665Z,-71
2019-03-05T11:10:47.686Z,-71
2019-03-05T11:11:47.665Z,-71
2019-03-05T11:12:47.666Z,-72
2019-03-05T11:13:47.668Z,-71
2019-03-05T11:14:47.671Z,-71
2019-03-05T11:15:47.670Z,-70
2019-03-05T11:16:49.851Z,-71
2019-03-05T11:17:47.671Z,-75
2019-03-05T11:18:47.677Z,-71
2019-03-05T11:19:47.672Z,-70
2019-03-05T11:20:47.706Z,-71
2019-03-05T11:21:47.681Z,-71
2019-03-05T11:22:47.675Z,-73
2019-03-05T11:23:47.678Z,-71
2019-03-05T11:24:47.676Z,-71
2019-03-05T11:25:47.679Z,-70
2019-03-05T11:26:47.679Z,-71
2019-03-05T11:27:47.689Z,-71
2019-03-05T11:28:47.730Z,-71
2019-03-05T11:29:47.682Z,-71
2019-03-05T11:30:47.733Z,-71
2019-03-05T11:31:47.701Z,-71
2019-03-05T11:32:47.712Z,-72
2019-03-05T11:33:47.835Z,-72
2019-03-05T11:34:47.732Z,-71
2019-03-05T11:35:48.019Z,-71
2019-03-05T11:36:47.820Z,-71
2019-03-05T11:37:50.519Z,-71
2019-03-05T11:38:48.036Z,-71
2019-03-05T11:39:47.929Z,-71
2019-03-05T11:40:47.714Z,-72
2019-03-05T11:41:47.692Z,-71
2019-03-05T11:42:47.695Z,-74
2019-03-05T11:43:47.692Z,-71
2019-03-05T11:44:58.975Z,-71
2019-03-05T11:45:47.718Z,-71
2019-03-05T11:46:47.701Z,-70
2019-03-05T11:47:47.714Z,-70
2019-03-05T11:48:47.697Z,-71
2019-03-05T11:49:47.699Z,-71
2019-03-05T11:50:47.761Z,-71
2019-03-05T11:51:47.729Z,-70
2019-03-05T11:52:47.731Z,-72
2019-03-05T11:53:47.702Z,-70
2019-03-05T11:54:47.759Z,-71
2019-03-05T11:55:47.725Z,-71
2019-03-05T11:56:47.705Z,-71
2019-03-05T11:57:47.707Z,-71
2019-03-05T11:58:47.709Z,-70
2019-03-05T11:59:47.708Z,-71
2019-03-05T12:00:47.730Z,-71
2019-03-05T12:01:47.707Z,-71
2019-03-05T12:02:47.721Z,-72
2019-03-05T12:03:47.710Z,-71
2019-03-05T12:04:47.714Z,-70
2019-03-05T12:05:47.713Z,-71
2019-03-05T12:06:47.736Z,-71
2019-03-05T12:07:47.714Z,-71
2019-03-05T12:08:47.715Z,-71
2019-03-05T12:09:47.720Z,-71
2019-03-05T12:10:47.717Z,-70
2019-03-05T12:11:47.717Z,-71
2019-03-05T12:12:47.719Z,-72
2019-03-05T12:13:47.719Z,-70
2019-03-05T12:14:47.721Z,-70
2019-03-05T12:15:47.725Z,-71
2019-03-05T12:16:47.746Z,-71
2019-03-05T12:17:47.739Z,-70
2019-03-05T12:18:47.724Z,-71
2019-03-05T12:19:47.734Z,-71
2019-03-05T12:20:47.727Z,-71
2019-03-05T12:21:47.726Z,-71
2019-03-05T12:22:47.728Z,-72
2019-03-05T12:23:48.362Z,-71
2019-03-05T12:24:47.735Z,-71
2019-03-05T12:25:47.731Z,-71
2019-03-05T12:26:47.752Z,-70
2019-03-05T12:27:47.731Z,-71
2019-03-05T12:28:47.731Z,-71
2019-03-05T12:29:47.734Z,-71
2019-03-05T12:30:47.733Z,-71
2019-03-05T12:31:47.737Z,-71
2019-03-05T12:32:47.737Z,-71
2019-03-05T12:33:47.734Z,-71
2019-03-05T12:34:47.736Z,-71
2019-03-05T12:35:47.738Z,-71
2019-03-05T12:36:47.763Z,-71
2019-03-05T12:37:47.740Z,-71
2019-03-05T12:38:47.738Z,-73
2019-03-05T12:39:47.742Z,-71
2019-03-05T12:40:47.742Z,-70
2019-03-05T12:41:47.743Z,-71
2019-03-05T12:42:47.743Z,-72
2019-03-05T12:43:47.745Z,-71
2019-03-05T12:44:47.749Z,-71
2019-03-05T12:45:47.746Z,-71
2019-03-05T12:46:47.769Z,-71
2019-03-05T12:47:47.749Z,-71
2019-03-05T12:48:47.751Z,-71
2019-03-05T12:49:47.749Z,-70
2019-03-05T12:50:47.750Z,-71
2019-03-05T12:51:47.750Z,-71
2019-03-05T12:52:47.751Z,-72
2019-03-05T12:53:47.755Z,-70
2019-03-05T12:54:47.755Z,-71
2019-03-05T12:55:47.753Z,-70
2019-03-05T12:56:47.788Z,-70
2019-03-05T12:57:47.758Z,-71
2019-03-05T12:58:47.755Z,-70
2019-03-05T12:59:47.760Z,-70
2019-03-05T13:00:47.758Z,-71
2019-03-05T13:01:47.784Z,-70
2019-03-05T13:02:47.761Z,-73
2019-03-05T13:03:47.762Z,-71
2019-03-05T13:04:47.761Z,-71
2019-03-05T13:05:47.763Z,-71
2019-03-05T13:06:47.788Z,-70
2019-03-05T13:07:48.070Z,-70
2019-03-05T13:08:47.765Z,-70
2019-03-05T13:09:47.766Z,-71
2019-03-05T13:10:47.799Z,-71
2019-03-05T13:11:49.807Z,-71
2019-03-05T13:12:47.769Z,-71
2019-03-05T13:13:51.279Z,-70
2019-03-05T13:14:47.770Z,-70
2019-03-05T13:15:47.771Z,-70
2019-03-05T13:16:47.772Z,-70
2019-03-05T13:17:51.443Z,-71
2019-03-05T13:18:47.775Z,-71
2019-03-05T13:19:48.881Z,-70
2019-03-05T13:20:47.776Z,-70
2019-03-05T13:21:48.455Z,-71
2019-03-05T13:22:47.801Z,-71
2019-03-05T13:23:47.782Z,-71
2019-03-05T13:24:50.194Z,-70
2019-03-05T13:25:47.781Z,-70
2019-03-05T13:26:47.785Z,-70
2019-03-05T13:27:47.781Z,-69
2019-03-05T13:28:47.782Z,-70
2019-03-05T13:29:47.784Z,-70
2019-03-05T13:30:47.785Z,-71
2019-03-05T13:31:47.787Z,-71
2019-03-05T13:32:47.806Z,-71
2019-03-05T13:33:47.793Z,-71
2019-03-05T13:34:47.787Z,-70
2019-03-05T13:35:47.787Z,-70
2019-03-05T13:36:50.551Z,-71
2019-03-05T13:37:47.791Z,-70
2019-03-05T13:38:47.797Z,-70
2019-03-05T13:39:47.791Z,-70
2019-03-05T13:40:47.792Z,-70
2019-03-05T13:41:50.356Z,-70
2019-03-05T13:42:47.819Z,-71
2019-03-05T13:43:47.797Z,-70
2019-03-05T13:44:47.796Z,-70
2019-03-05T13:45:49.279Z,-70
2019-03-05T13:46:47.798Z,-70